Al Hulwah, Saudi Arabia
Current Conditions -  °F | °C
As of 9:00 PM on Thursday 30 Oct 2014 (Local Time) from OEKJ Reporting Station
Clear Clear  
Wind Chill: 81°   Ceiling: Unl
Heat Index: 81°   Visibility: 6mi
Dew Point: 41°   Wind: 9mph
Humidity: 24%   Direction: 170°S
Pressure: 29.94"   Gusts: NA
Location:  23.45°N, 46.78°E
Report Text: OEKJ 301800Z 17008KT CAVOK 27/05 Q1014
Loading
Personal Weather Stations






























Interactive Weather Map
Tropical Storm Tracking
New forecast layout! Learn more

10-Day Weather Forecast

Advertisements
Track Severe Weather on mobile